Time,TemperatureF,DewpointF,PressureIn,WindDirection,WindDirectionDegrees,WindSpeedMPH,WindSpeedGustMPH,Humidity,HourlyPrecipIn,Conditions,Clouds,dailyrainin,SoftwareType,DateUTC
2013-07-18 00:03:00,77.0,73.2,30.12,West,260,3.0,4.0,88,0.00,,,0.00,Wunderground v.1.15,2013-07-18 04:03:00,
2013-07-18 00:08:00,77.3,73.5,30.12,West,265,3.0,4.0,88,0.00,,,0.00,Wunderground v.1.15,2013-07-18 04:08:00,
2013-07-18 00:18:00,77.9,73.7,30.12,West,259,4.0,4.0,87,0.00,,,0.00,Wunderground v.1.15,2013-07-18 04:18:00,
2013-07-18 00:23:00,77.9,73.4,30.12,West,269,3.0,4.0,86,0.00,,,0.00,Wunderground v.1.15,2013-07-18 04:23:00,
2013-07-18 00:28:00,77.8,73.3,30.12,WNW,288,3.0,3.0,86,0.00,,,0.00,Wunderground v.1.15,2013-07-18 04:28:00,
2013-07-18 00:33:00,77.7,73.2,30.12,WNW,287,3.0,3.0,86,0.00,,,0.00,Wunderground v.1.15,2013-07-18 04:33:00,
2013-07-18 00:38:00,77.5,73.3,30.12,WNW,287,3.0,3.0,87,0.00,,,0.00,Wunderground v.1.15,2013-07-18 04:38:00,
2013-07-18 00:48:00,77.5,73.3,30.12,WNW,283,3.0,3.0,87,0.00,,,0.00,Wunderground v.1.15,2013-07-18 04:48:00,
2013-07-18 00:58:00,77.6,73.4,30.11,West,281,3.0,3.0,87,0.00,,,0.00,Wunderground v.1.15,2013-07-18 04:58:00,
2013-07-18 01:08:00,77.3,73.1,30.11,West,277,3.0,4.0,87,0.00,,,0.00,Wunderground v.1.15,2013-07-18 05:08:00,
2013-07-18 01:13:00,77.2,73.0,30.11,West,275,3.0,4.0,87,0.00,,,0.00,Wunderground v.1.15,2013-07-18 05:13:00,
2013-07-18 01:23:00,77.0,73.2,30.11,West,265,2.0,3.0,88,0.00,,,0.00,Wunderground v.1.15,2013-07-18 05:23:00,
2013-07-18 01:33:00,76.8,73.0,30.11,West,263,1.0,2.0,88,0.00,,,0.00,Wunderground v.1.15,2013-07-18 05:33:00,
2013-07-18 01:38:00,76.7,72.9,30.10,West,263,1.0,1.0,88,0.00,,,0.00,Wunderground v.1.15,2013-07-18 05:38:00,
2013-07-18 01:43:00,76.6,72.8,30.10,West,267,2.0,3.0,88,0.00,,,0.00,Wunderground v.1.15,2013-07-18 05:43:00,
2013-07-18 01:53:00,76.3,72.5,30.10,West,277,2.0,2.0,88,0.00,,,0.00,Wunderground v.1.15,2013-07-18 05:53:00,
2013-07-18 01:58:00,76.2,72.4,30.10,West,277,2.0,2.0,88,0.00,,,0.00,Wunderground v.1.15,2013-07-18 05:58:00,
2013-07-18 02:08:00,76.2,72.7,30.10,West,276,2.0,2.0,89,0.00,,,0.00,Wunderground v.1.15,2013-07-18 06:08:00,
2013-07-18 02:18:00,76.0,72.2,30.10,West,275,2.0,2.0,88,0.00,,,0.00,Wunderground v.1.15,2013-07-18 06:18:00,
2013-07-18 02:23:00,75.9,72.4,30.10,West,275,2.0,2.0,89,0.00,,,0.00,Wunderground v.1.15,2013-07-18 06:23:00,
2013-07-18 02:28:00,75.8,72.3,30.10,West,275,2.0,2.0,89,0.00,,,0.00,Wunderground v.1.15,2013-07-18 06:28:00,
2013-07-18 02:38:00,75.6,72.1,30.10,West,275,1.0,1.0,89,0.00,,,0.00,Wunderground v.1.15,2013-07-18 06:38:00,
2013-07-18 02:48:00,75.5,72.0,30.10,West,275,2.0,2.0,89,0.00,,,0.00,Wunderground v.1.15,2013-07-18 06:48:00,
2013-07-18 02:53:00,75.3,71.8,30.10,West,275,2.0,2.0,89,0.00,,,0.00,Wunderground v.1.15,2013-07-18 06:53:00,
2013-07-18 02:58:00,75.0,71.5,30.10,West,275,1.0,2.0,89,0.00,,,0.00,Wunderground v.1.15,2013-07-18 06:58:00,
2013-07-18 03:08:00,74.9,71.8,30.10,West,275,2.0,2.0,90,0.00,,,0.00,Wunderground v.1.15,2013-07-18 07:08:00,
2013-07-18 03:18:00,74.7,71.6,30.10,West,275,1.0,2.0,90,0.00,,,0.00,Wunderground v.1.15,2013-07-18 07:18:00,
2013-07-18 03:28:00,74.6,71.5,30.10,West,275,2.0,2.0,90,0.00,,,0.00,Wunderground v.1.15,2013-07-18 07:28:00,
2013-07-18 03:38:00,74.7,71.6,30.10,West,274,2.0,2.0,90,0.00,,,0.00,Wunderground v.1.15,2013-07-18 07:38:00,
2013-07-18 03:48:00,74.5,71.4,30.10,West,265,2.0,2.0,90,0.00,,,0.00,Wunderground v.1.15,2013-07-18 07:48:00,
2013-07-18 03:58:00,74.3,71.5,30.10,West,267,2.0,3.0,91,0.00,,,0.00,Wunderground v.1.15,2013-07-18 07:58:00,
2013-07-18 04:08:00,74.3,71.5,30.10,WSW,253,3.0,3.0,91,0.00,,,0.00,Wunderground v.1.15,2013-07-18 08:08:00,
2013-07-18 04:13:00,74.2,71.4,30.09,West,260,3.0,3.0,91,0.00,,,0.00,Wunderground v.1.15,2013-07-18 08:13:00,
2013-07-18 04:23:00,74.0,71.2,30.09,WSW,252,2.0,3.0,91,0.00,,,0.00,Wunderground v.1.15,2013-07-18 08:23:00,
2013-07-18 04:33:00,73.9,71.1,30.09,WSW,249,1.0,2.0,91,0.00,,,0.00,Wunderground v.1.15,2013-07-18 08:33:00,
2013-07-18 04:43:00,74.0,71.2,30.09,WSW,248,1.0,2.0,91,0.00,,,0.00,Wunderground v.1.15,2013-07-18 08:43:00,
2013-07-18 04:53:00,73.8,71.0,30.09,WSW,248,1.0,2.0,91,0.00,,,0.00,Wunderground v.1.15,2013-07-18 08:53:00,
2013-07-18 04:58:00,73.6,70.8,30.09,WSW,250,1.0,1.0,91,0.00,,,0.00,Wunderground v.1.15,2013-07-18 08:58:00,
2013-07-18 05:08:00,73.6,71.1,30.09,WSW,250,0.0,0.0,92,0.00,,,0.00,Wunderground v.1.15,2013-07-18 09:08:00,
2013-07-18 05:18:00,73.6,71.1,30.09,WSW,250,1.0,1.0,92,0.00,,,0.00,Wunderground v.1.15,2013-07-18 09:18:00,
2013-07-18 05:28:00,73.6,71.1,30.09,WSW,242,1.0,1.0,92,0.00,,,0.00,Wunderground v.1.15,2013-07-18 09:28:00,
2013-07-18 05:38:00,73.1,70.3,30.09,WSW,242,0.0,0.0,91,0.00,,,0.00,Wunderground v.1.15,2013-07-18 09:38:00,
2013-07-18 05:48:00,73.3,70.8,30.09,SSW,198,1.0,4.0,92,0.00,,,0.00,Wunderground v.1.15,2013-07-18 09:48:00,
2013-07-18 05:58:00,73.4,70.9,30.09,SSW,201,2.0,2.0,92,0.00,,,0.00,Wunderground v.1.15,2013-07-18 09:58:00,
2013-07-18 06:08:00,73.1,70.3,30.09,SSW,201,1.0,1.0,91,0.00,,,0.00,Wunderground v.1.15,2013-07-18 10:08:00,
2013-07-18 06:13:00,73.0,70.5,30.09,SSW,203,1.0,2.0,92,0.00,,,0.00,Wunderground v.1.15,2013-07-18 10:13:00,
2013-07-18 06:23:00,72.9,70.4,30.09,SSW,210,2.0,2.0,92,0.00,,,0.00,Wunderground v.1.15,2013-07-18 10:23:00,
2013-07-18 06:33:00,73.0,70.5,30.09,SSW,210,1.0,1.0,92,0.00,,,0.00,Wunderground v.1.15,2013-07-18 10:33:00,
2013-07-18 06:43:00,73.3,70.8,30.09,SSW,210,0.0,0.0,92,0.00,,,0.00,Wunderground v.1.15,2013-07-18 10:43:00,
2013-07-18 06:53:00,73.5,71.0,30.09,SSW,210,0.0,0.0,92,0.00,,,0.00,Wunderground v.1.15,2013-07-18 10:53:00,
2013-07-18 06:58:00,73.2,70.7,30.09,SSW,210,0.0,0.0,92,0.00,,,0.00,Wunderground v.1.15,2013-07-18 10:58:00,
2013-07-18 07:08:00,73.5,71.0,30.10,SSW,210,0.0,0.0,92,0.00,,,0.00,Wunderground v.1.15,2013-07-18 11:08:00,
2013-07-18 07:18:00,74.4,72.2,30.10,SSW,211,0.0,1.0,93,0.00,,,0.00,Wunderground v.1.15,2013-07-18 11:18:00,
2013-07-18 07:28:00,75.3,73.1,30.09,SSW,211,1.0,1.0,93,0.00,,,0.00,Wunderground v.1.15,2013-07-18 11:28:00,
2013-07-18 07:38:00,75.9,73.4,30.09,SSW,212,1.0,1.0,92,0.00,,,0.00,Wunderground v.1.15,2013-07-18 11:38:00,
2013-07-18 07:48:00,76.6,73.1,30.09,WSW,255,3.0,3.0,89,0.00,,,0.00,Wunderground v.1.15,2013-07-18 11:48:00,
2013-07-18 07:58:00,77.6,73.4,30.09,West,262,3.0,3.0,87,0.00,,,0.00,Wunderground v.1.15,2013-07-18 11:58:00,
2013-07-18 08:08:00,78.2,73.7,30.09,WSW,258,4.0,4.0,86,0.00,,,0.00,Wunderground v.1.15,2013-07-18 12:08:00,
2013-07-18 08:13:00,78.5,74.0,30.09,West,264,4.0,4.0,86,0.00,,,0.00,Wunderground v.1.15,2013-07-18 12:13:00,
2013-07-18 08:23:00,79.3,74.4,30.09,WSW,244,3.0,3.0,85,0.00,,,0.00,Wunderground v.1.15,2013-07-18 12:23:00,
2013-07-18 08:33:00,80.1,75.2,30.09,WSW,246,3.0,4.0,85,0.00,,,0.00,Wunderground v.1.15,2013-07-18 12:33:00,
2013-07-18 08:43:00,80.5,74.9,30.09,WSW,255,4.0,4.0,83,0.00,,,0.00,Wunderground v.1.15,2013-07-18 12:43:00,
2013-07-18 08:53:00,81.1,74.7,30.09,West,268,4.0,4.0,81,0.00,,,0.00,Wunderground v.1.15,2013-07-18 12:53:00,
2013-07-18 08:58:00,81.5,75.8,30.09,West,260,3.0,3.0,83,0.00,,,0.00,Wunderground v.1.15,2013-07-18 12:58:00,
2013-07-18 09:08:00,82.0,75.6,30.09,West,271,4.0,4.0,81,0.00,,,0.00,Wunderground v.1.15,2013-07-18 13:08:00,
2013-07-18 09:18:00,82.7,75.9,30.09,WSW,239,3.0,3.0,80,0.00,,,0.00,Wunderground v.1.15,2013-07-18 13:18:00,
2013-07-18 09:28:00,83.1,76.3,30.09,West,259,3.0,3.0,80,0.00,,,0.00,Wunderground v.1.15,2013-07-18 13:28:00,
2013-07-18 09:38:00,83.8,76.6,30.09,SSW,209,3.0,3.0,79,0.00,,,0.00,Wunderground v.1.15,2013-07-18 13:38:00,
2013-07-18 09:48:00,84.3,77.1,30.08,SW,229,3.0,3.0,79,0.00,,,0.00,Wunderground v.1.15,2013-07-18 13:48:00,
2013-07-18 09:58:00,85.0,77.4,30.08,WSW,252,3.0,3.0,78,0.00,,,0.00,Wunderground v.1.15,2013-07-18 13:58:00,
2013-07-18 10:08:00,85.7,78.0,30.08,WSW,243,2.0,3.0,78,0.00,,,0.00,Wunderground v.1.15,2013-07-18 14:08:00,
2013-07-18 10:13:00,86.0,77.5,30.08,WSW,244,2.0,3.0,76,0.00,,,0.00,Wunderground v.1.15,2013-07-18 14:13:00,
2013-07-18 10:23:00,86.1,77.6,30.08,West,271,3.0,4.0,76,0.00,,,0.00,Wunderground v.1.15,2013-07-18 14:23:00,
2013-07-18 10:28:00,85.9,77.8,30.08,West,277,4.0,4.0,77,0.00,,,0.00,Wunderground v.1.15,2013-07-18 14:28:00,
2013-07-18 10:38:00,86.4,78.7,30.08,WSW,258,3.0,4.0,78,0.00,,,0.00,Wunderground v.1.15,2013-07-18 14:38:00,
2013-07-18 10:43:00,86.4,78.3,30.07,West,274,3.0,4.0,77,0.00,,,0.00,Wunderground v.1.15,2013-07-18 14:43:00,
2013-07-18 10:53:00,86.8,77.9,30.08,NW,306,4.0,6.0,75,0.00,,,0.00,Wunderground v.1.15,2013-07-18 14:53:00,
2013-07-18 10:58:00,87.1,77.4,30.08,West,267,3.0,3.0,73,0.00,,,0.00,Wunderground v.1.15,2013-07-18 14:58:00,
2013-07-18 11:08:00,87.4,77.7,30.07,West,279,3.0,3.0,73,0.00,,,0.00,Wunderground v.1.15,2013-07-18 15:08:00,
2013-07-18 11:13:00,87.4,77.3,30.07,West,265,3.0,3.0,72,0.00,,,0.00,Wunderground v.1.15,2013-07-18 15:13:00,
2013-07-18 11:23:00,87.6,77.9,30.07,WSW,256,3.0,3.0,73,0.00,,,0.00,Wunderground v.1.15,2013-07-18 15:23:00,
2013-07-18 11:33:00,88.1,79.2,30.07,West,276,3.0,6.0,75,0.00,,,0.00,Wunderground v.1.15,2013-07-18 15:33:00,
2013-07-18 11:43:00,88.3,78.5,30.07,WSW,249,4.0,5.0,73,0.00,,,0.00,Wunderground v.1.15,2013-07-18 15:43:00,
2013-07-18 11:53:00,88.4,79.1,30.07,WNW,302,4.0,5.0,74,0.00,,,0.00,Wunderground v.1.15,2013-07-18 15:53:00,
2013-07-18 11:58:00,89.0,80.8,30.07,WSW,252,3.0,3.0,77,0.00,,,0.00,Wunderground v.1.15,2013-07-18 15:58:00,
2013-07-18 12:08:00,89.5,80.1,30.07,NW,308,4.0,6.0,74,0.00,,,0.00,Wunderground v.1.15,2013-07-18 16:08:00,
2013-07-18 12:18:00,89.8,80.0,30.06,West,261,3.0,4.0,73,0.00,,,0.00,Wunderground v.1.15,2013-07-18 16:18:00,
2013-07-18 12:28:00,89.5,78.8,30.06,WSW,257,4.0,4.0,71,0.00,,,0.00,Wunderground v.1.15,2013-07-18 16:28:00,
2013-07-18 12:38:00,88.4,77.4,30.06,West,261,5.0,5.0,70,0.00,,,0.00,Wunderground v.1.15,2013-07-18 16:38:00,
2013-07-18 12:48:00,87.4,77.3,30.06,SW,234,5.0,5.0,72,0.00,,,0.00,Wunderground v.1.15,2013-07-18 16:48:00,
2013-07-18 12:58:00,87.8,77.6,30.05,SSW,203,4.0,4.0,72,0.00,,,0.00,Wunderground v.1.15,2013-07-18 16:58:00,
2013-07-18 13:08:00,89.5,78.8,30.05,NW,321,6.0,6.0,71,0.00,,,0.00,Wunderground v.1.15,2013-07-18 17:08:00,
2013-07-18 13:13:00,89.2,78.6,30.05,WSW,254,5.0,6.0,71,0.00,,,0.00,Wunderground v.1.15,2013-07-18 17:13:00,
2013-07-18 13:23:00,89.0,77.9,30.05,SSW,193,4.0,4.0,70,0.00,,,0.00,Wunderground v.1.15,2013-07-18 17:23:00,
2013-07-18 13:33:00,88.3,78.1,30.04,West,278,4.0,8.0,72,0.00,,,0.00,Wunderground v.1.15,2013-07-18 17:33:00,
2013-07-18 13:43:00,87.0,76.5,30.04,West,269,6.0,8.0,71,0.00,,,0.00,Wunderground v.1.15,2013-07-18 17:43:00,
2013-07-18 13:53:00,87.1,77.4,30.04,West,273,4.0,5.0,73,0.00,,,0.00,Wunderground v.1.15,2013-07-18 17:53:00,
2013-07-18 13:58:00,88.0,76.5,30.03,WSW,258,4.0,4.0,69,0.00,,,0.00,Wunderground v.1.15,2013-07-18 17:58:00,
2013-07-18 14:08:00,87.6,77.0,30.03,West,267,6.0,6.0,71,0.00,,,0.00,Wunderground v.1.15,2013-07-18 18:08:00,
2013-07-18 14:18:00,90.1,78.6,30.03,SSW,213,5.0,5.0,69,0.00,,,0.00,Wunderground v.1.15,2013-07-18 18:18:00,
2013-07-18 14:28:00,90.9,77.5,30.03,SW,221,4.0,5.0,65,0.00,,,0.00,Wunderground v.1.15,2013-07-18 18:28:00,
2013-07-18 14:38:00,89.5,78.0,30.03,WNW,287,5.0,5.0,69,0.00,,,0.00,Wunderground v.1.15,2013-07-18 18:38:00,
2013-07-18 14:48:00,89.6,78.1,30.03,West,262,6.0,6.0,69,0.00,,,0.00,Wunderground v.1.15,2013-07-18 18:48:00,
2013-07-18 14:58:00,88.3,76.4,30.03,WSW,249,6.0,8.0,68,0.00,,,0.00,Wunderground v.1.15,2013-07-18 18:58:00,
2013-07-18 15:08:00,88.8,78.6,30.02,WSW,243,7.0,9.0,72,0.00,,,0.00,Wunderground v.1.15,2013-07-18 19:08:00,
2013-07-18 15:13:00,89.5,78.4,30.02,WSW,246,7.0,9.0,70,0.00,,,0.00,Wunderground v.1.15,2013-07-18 19:13:00,
2013-07-18 15:23:00,91.0,79.0,30.01,SW,219,5.0,7.0,68,0.00,,,0.00,Wunderground v.1.15,2013-07-18 19:23:00,
2013-07-18 15:32:00,90.8,78.8,30.01,South,178,5.0,6.0,68,0.00,,,0.00,Wunderground v.1.15,2013-07-18 19:32:00,
2013-07-18 15:42:00,91.2,79.6,30.01,SW,230,6.0,10.0,69,0.00,,,0.00,Wunderground v.1.15,2013-07-18 19:42:00,
2013-07-18 15:52:00,91.0,77.6,30.00,SW,218,8.0,11.0,65,0.00,,,0.00,Wunderground v.1.15,2013-07-18 19:52:00,
2013-07-18 15:57:00,90.6,78.1,30.00,SW,228,10.0,10.0,67,0.00,,,0.00,Wunderground v.1.15,2013-07-18 19:57:00,
2013-07-18 16:07:00,90.6,77.7,30.00,WSW,244,7.0,9.0,66,0.00,,,0.00,Wunderground v.1.15,2013-07-18 20:07:00,
2013-07-18 16:12:00,91.0,77.1,29.99,SW,230,8.0,9.0,64,0.00,,,0.00,Wunderground v.1.15,2013-07-18 20:12:00,
2013-07-18 16:22:00,90.9,78.0,29.98,SW,231,7.0,8.0,66,0.00,,,0.00,Wunderground v.1.15,2013-07-18 20:22:00,
2013-07-18 16:27:00,91.2,78.2,29.98,SSW,211,7.0,7.0,66,0.00,,,0.00,Wunderground v.1.15,2013-07-18 20:27:00,
2013-07-18 16:37:00,91.0,77.6,29.98,SW,222,7.0,10.0,65,0.00,,,0.00,Wunderground v.1.15,2013-07-18 20:37:00,
2013-07-18 16:47:00,91.1,77.2,29.97,SW,236,7.0,8.0,64,0.00,,,0.00,Wunderground v.1.15,2013-07-18 20:47:00,
2013-07-18 16:52:00,91.1,78.2,29.97,SW,234,7.0,8.0,66,0.00,,,0.00,Wunderground v.1.15,2013-07-18 20:52:00,
2013-07-18 16:57:00,90.9,78.4,29.97,WSW,242,8.0,8.0,67,0.00,,,0.00,Wunderground v.1.15,2013-07-18 20:57:00,
2013-07-18 17:07:00,91.2,78.2,29.96,SW,227,7.0,7.0,66,0.00,,,0.00,Wunderground v.1.15,2013-07-18 21:07:00,
2013-07-18 17:17:00,91.3,76.9,29.95,West,267,7.0,10.0,63,0.00,,,0.00,Wunderground v.1.15,2013-07-18 21:17:00,
2013-07-18 17:27:00,91.0,77.1,29.95,WNW,284,8.0,8.0,64,0.00,,,0.00,Wunderground v.1.15,2013-07-18 21:27:00,
2013-07-18 17:37:00,90.7,77.3,29.95,West,260,8.0,8.0,65,0.00,,,0.00,Wunderground v.1.15,2013-07-18 21:37:00,
2013-07-18 17:47:00,90.7,76.4,29.95,West,259,8.0,9.0,63,0.00,,,0.00,Wunderground v.1.15,2013-07-18 21:47:00,
2013-07-18 17:57:00,90.8,76.9,29.95,WSW,252,8.0,8.0,64,0.00,,,0.00,Wunderground v.1.15,2013-07-18 21:57:00,
2013-07-18 18:07:00,89.6,76.3,29.95,WSW,249,7.0,7.0,65,0.00,,,0.00,Wunderground v.1.15,2013-07-18 22:07:00,
2013-07-18 18:17:00,90.0,77.1,29.95,SW,229,7.0,9.0,66,0.00,,,0.00,Wunderground v.1.15,2013-07-18 22:17:00,
2013-07-18 18:27:00,89.7,76.8,29.94,WSW,258,8.0,8.0,66,0.00,,,0.00,Wunderground v.1.15,2013-07-18 22:27:00,
2013-07-18 18:37:00,89.9,77.9,29.94,WSW,242,7.0,7.0,68,0.00,,,0.00,Wunderground v.1.15,2013-07-18 22:37:00,
2013-07-18 18:47:00,89.5,76.6,29.94,West,259,8.0,10.0,66,0.00,,,0.00,Wunderground v.1.15,2013-07-18 22:47:00,
2013-07-18 18:57:00,89.5,76.6,29.94,WSW,252,7.0,9.0,66,0.00,,,0.00,Wunderground v.1.15,2013-07-18 22:57:00,
2013-07-18 19:07:00,89.7,77.7,29.94,WSW,244,6.0,8.0,68,0.00,,,0.00,Wunderground v.1.15,2013-07-18 23:07:00,
2013-07-18 19:12:00,89.6,77.6,29.94,WSW,244,5.0,8.0,68,0.00,,,0.00,Wunderground v.1.15,2013-07-18 23:12:00,
2013-07-18 19:22:00,89.2,76.4,29.94,WSW,241,6.0,6.0,66,0.00,,,0.00,Wunderground v.1.15,2013-07-18 23:22:00,
2013-07-18 19:32:00,88.5,76.1,29.94,WSW,244,4.0,5.0,67,0.00,,,0.00,Wunderground v.1.15,2013-07-18 23:32:00,
2013-07-18 19:37:00,87.4,76.0,29.94,West,271,5.0,6.0,69,0.00,,,0.00,Wunderground v.1.15,2013-07-18 23:37:00,
2013-07-18 19:47:00,86.3,76.6,29.94,WNW,288,4.0,4.0,73,0.00,,,0.00,Wunderground v.1.15,2013-07-18 23:47:00,
2013-07-18 19:57:00,85.5,77.5,29.93,WNW,293,3.0,3.0,77,0.00,,,0.00,Wunderground v.1.15,2013-07-18 23:57:00,
2013-07-18 20:07:00,85.1,77.1,29.93,NW,313,3.0,3.0,77,0.00,,,0.00,Wunderground v.1.15,2013-07-19 00:07:00,
2013-07-18 20:17:00,85.1,77.1,29.94,NW,313,0.0,1.0,77,0.00,,,0.00,Wunderground v.1.15,2013-07-19 00:17:00,
2013-07-18 20:27:00,85.1,77.1,29.93,NW,313,0.0,0.0,77,0.00,,,0.00,Wunderground v.1.15,2013-07-19 00:27:00,
2013-07-18 20:32:00,85.0,77.0,29.93,NW,313,0.0,0.0,77,0.00,,,0.00,Wunderground v.1.15,2013-07-19 00:32:00,
2013-07-18 20:42:00,84.7,77.5,29.93,NW,313,0.0,0.0,79,0.00,,,0.00,Wunderground v.1.15,2013-07-19 00:42:00,
2013-07-18 20:47:00,84.3,77.1,29.93,NW,313,0.0,0.0,79,0.00,,,0.00,Wunderground v.1.15,2013-07-19 00:47:00,
2013-07-18 20:52:00,84.1,77.3,29.93,NW,313,0.0,0.0,80,0.00,,,0.00,Wunderground v.1.15,2013-07-19 00:52:00,
2013-07-18 20:57:00,83.9,77.1,29.93,NW,313,0.0,0.0,80,0.00,,,0.00,Wunderground v.1.15,2013-07-19 00:57:00,
2013-07-18 21:07:00,83.6,77.1,29.93,NW,313,0.0,0.0,81,0.00,,,0.00,Wunderground v.1.15,2013-07-19 01:07:00,
2013-07-18 21:12:00,83.3,76.9,29.93,NW,313,0.0,0.0,81,0.00,,,0.00,Wunderground v.1.15,2013-07-19 01:12:00,
2013-07-18 21:22:00,82.6,76.5,29.92,NW,313,0.0,0.0,82,0.00,,,0.00,Wunderground v.1.15,2013-07-19 01:22:00,
2013-07-18 21:27:00,82.3,76.3,29.92,NW,313,0.0,0.0,82,0.00,,,0.00,Wunderground v.1.15,2013-07-19 01:27:00,
2013-07-18 21:37:00,81.6,75.9,29.93,NW,313,0.0,0.0,83,0.00,,,0.00,Wunderground v.1.15,2013-07-19 01:37:00,
2013-07-18 21:47:00,81.0,75.3,29.93,SW,214,1.0,3.0,83,0.00,,,0.00,Wunderground v.1.15,2013-07-19 01:47:00,
2013-07-18 21:57:00,80.6,75.0,29.93,SSW,205,2.0,3.0,83,0.00,,,0.00,Wunderground v.1.15,2013-07-19 01:57:00,
2013-07-18 22:07:00,81.0,75.3,29.93,SSW,204,2.0,2.0,83,0.00,,,0.00,Wunderground v.1.15,2013-07-19 02:07:00,
2013-07-18 22:17:00,81.4,75.0,29.93,SSW,198,2.0,2.0,81,0.00,,,0.00,Wunderground v.1.15,2013-07-19 02:17:00,
2013-07-18 22:27:00,80.9,74.9,29.93,SSW,198,2.0,2.0,82,0.00,,,0.00,Wunderground v.1.15,2013-07-19 02:27:00,
2013-07-18 22:37:00,80.6,74.6,29.94,SSW,211,2.0,2.0,82,0.00,,,0.00,Wunderground v.1.15,2013-07-19 02:37:00,
2013-07-18 22:42:00,80.5,74.5,29.94,SSW,211,2.0,3.0,82,0.00,,,0.00,Wunderground v.1.15,2013-07-19 02:42:00,
2013-07-18 22:52:00,80.6,74.6,29.94,SW,225,2.0,3.0,82,0.00,,,0.00,Wunderground v.1.15,2013-07-19 02:52:00,
2013-07-18 22:57:00,80.7,74.7,29.94,SSW,202,2.0,2.0,82,0.00,,,0.00,Wunderground v.1.15,2013-07-19 02:57:00,
2013-07-18 23:07:00,80.9,74.9,29.94,SW,215,2.0,2.0,82,0.00,,,0.00,Wunderground v.1.15,2013-07-19 03:07:00,
2013-07-18 23:12:00,80.9,74.5,29.94,SSW,211,2.0,3.0,81,0.00,,,0.00,Wunderground v.1.15,2013-07-19 03:12:00,
2013-07-18 23:22:00,80.9,74.5,29.94,SW,232,3.0,4.0,81,0.00,,,0.00,Wunderground v.1.15,2013-07-19 03:22:00,
2013-07-18 23:27:00,81.0,74.6,29.93,SSW,211,3.0,3.0,81,0.00,,,0.00,Wunderground v.1.15,2013-07-19 03:27:00,
2013-07-18 23:37:00,81.0,74.6,29.93,SW,236,3.0,3.0,81,0.00,,,0.00,Wunderground v.1.15,2013-07-19 03:37:00,
2013-07-18 23:42:00,80.8,74.4,29.93,SW,223,3.0,3.0,81,0.00,,,0.00,Wunderground v.1.15,2013-07-19 03:42:00,
2013-07-18 23:52:00,80.6,74.2,29.94,SW,232,3.0,4.0,81,0.00,,,0.00,Wunderground v.1.15,2013-07-19 03:52:00,
2013-07-18 23:57:00,80.8,74.4,29.93,SW,215,4.0,4.0,81,0.00,,,0.00,Wunderground v.1.15,2013-07-19 03:57:00,